Time;durP1;ratioP1;P1;durP2;ratioP2;P2;SDS_P1;SDS_P2;PMS_P1;PMS_P2;Temp;Humidity;BMP_temperature;BMP_pressure;BME280_temperature;BME280_humidity;BME280_pressure;Samples;Min_cycle;Max_cycle;Signal;HPM_P1;HPM_P2
2022/11/09 00:01:39;;;;;;;0.52;0.20;;;;;;;;;;5109917;28;20776;-80
2022/11/09 00:04:05;;;;;;;1.75;1.65;;;;;;;;;;5090784;28;20059;-81
2022/11/09 00:06:30;;;;;;;0.20;0.20;;;;;;;;;;5090923;28;20473;-79
2022/11/09 00:08:56;;;;;;;0.80;0.80;;;;;;;;;;5109761;28;20539;-79
2022/11/09 00:11:21;;;;;;;0.93;0.93;;;;;;;;;;5089860;28;20040;-79
2022/11/09 00:13:50;;;;;;;1.02;1.02;;;;;;;;;;5107678;27;20035;-78
2022/11/09 00:16:16;;;;;;;0.68;0.68;;;;;;;;;;5093461;28;20194;-79
2022/11/09 00:18:48;;;;;;;0.88;0.88;;;;;;;;;;5111772;28;20168;-77
2022/11/09 00:21:18;;;;;;;0.88;0.88;;;;;;;;;;5092981;28;20032;-77
2022/11/09 00:23:43;;;;;;;1.15;1.15;;;;;;;;;;5111000;28;20035;-77
2022/11/09 00:26:10;;;;;;;0.90;0.90;;;;;;;;;;5111386;28;20149;-77
2022/11/09 00:28:35;;;;;;;0.85;0.85;;;;;;;;;;5111134;28;20032;-77
2022/11/09 00:31:01;;;;;;;0.93;0.93;;;;;;;;;;5111246;28;20032;-77
2022/11/09 00:33:27;;;;;;;0.77;0.77;;;;;;;;;;5093003;28;20550;-77
2022/11/09 00:35:52;;;;;;;0.95;0.95;;;;;;;;;;5110603;28;20031;-77
2022/11/09 00:38:18;;;;;;;0.52;0.52;;;;;;;;;;5111057;28;20041;-78
2022/11/09 00:40:43;;;;;;;1.63;1.15;;;;;;;;;;5092929;28;20108;-77
2022/11/09 00:43:08;;;;;;;0.88;0.88;;;;;;;;;;5110742;28;20110;-77
2022/11/09 00:45:34;;;;;;;1.15;1.15;;;;;;;;;;5110247;28;20047;-77
2022/11/09 00:47:59;;;;;;;3.17;0.88;;;;;;;;;;5111024;28;20032;-86
2022/11/09 00:50:25;;;;;;;0.90;0.90;;;;;;;;;;5112133;28;20039;-82
2022/11/09 00:52:50;;;;;;;1.23;0.93;;;;;;;;;;5112865;28;20036;-83
2022/11/09 00:55:15;;;;;;;0.90;0.90;;;;;;;;;;5113179;28;20059;-83
2022/11/09 00:57:41;;;;;;;0.43;0.43;;;;;;;;;;5112702;28;20039;-83
2022/11/09 01:00:06;;;;;;;0.50;0.50;;;;;;;;;;5113148;28;20074;-85
2022/11/09 01:02:32;;;;;;;0.30;0.30;;;;;;;;;;5094934;28;20447;-83
2022/11/09 01:04:58;;;;;;;0.47;0.47;;;;;;;;;;5112409;28;20056;-82
2022/11/09 01:07:24;;;;;;;0.93;0.93;;;;;;;;;;5112946;28;20039;-82
2022/11/09 01:09:49;;;;;;;0.73;0.30;;;;;;;;;;5112753;28;20512;-83
2022/11/09 01:12:14;;;;;;;0.30;0.20;;;;;;;;;;5094525;28;20511;-82
2022/11/09 01:14:40;;;;;;;1.02;1.02;;;;;;;;;;5112861;28;20118;-82
2022/11/09 01:17:05;;;;;;;0.93;0.93;;;;;;;;;;5112853;28;20035;-82
2022/11/09 01:19:31;;;;;;;0.30;0.30;;;;;;;;;;5112292;28;20507;-82
2022/11/09 01:21:56;;;;;;;0.93;0.93;;;;;;;;;;5094446;28;20038;-82
2022/11/09 01:24:21;;;;;;;0.38;0.30;;;;;;;;;;5111472;28;20398;-82
2022/11/09 01:26:47;;;;;;;0.47;0.47;;;;;;;;;;5111574;28;20062;-82
2022/11/09 01:29:12;;;;;;;1.08;1.02;;;;;;;;;;5112495;28;20039;-79
2022/11/09 01:31:37;;;;;;;1.05;1.05;;;;;;;;;;5112171;28;20042;-79
2022/11/09 01:34:03;;;;;;;2.15;1.13;;;;;;;;;;5111741;28;20054;-78
2022/11/09 01:36:28;;;;;;;2.97;1.17;;;;;;;;;;5112163;28;20036;-79
2022/11/09 01:38:54;;;;;;;1.05;0.47;;;;;;;;;;5112360;28;20039;-78
2022/11/09 01:41:21;;;;;;;3.13;1.73;;;;;;;;;;5111162;28;20043;-80
2022/11/09 01:44:06;;;;;;;0.63;0.63;;;;;;;;;;5105633;28;20070;-78
2022/11/09 01:46:44;;;;;;;1.02;1.02;;;;;;;;;;5112096;28;20039;-79
2022/11/09 01:49:22;;;;;;;2.65;1.23;;;;;;;;;;5111473;28;20047;-79
2022/11/09 01:51:58;;;;;;;1.48;1.38;;;;;;;;;;5110796;28;20074;-79
2022/11/09 01:54:26;;;;;;;1.10;0.40;;;;;;;;;;5110383;28;20039;-78
2022/11/09 01:56:53;;;;;;;3.70;1.05;;;;;;;;;;5109833;28;20073;-77
2022/11/09 01:59:22;;;;;;;1.63;1.17;;;;;;;;;;5110321;28;20059;-77
2022/11/09 02:01:48;;;;;;;1.05;1.05;;;;;;;;;;5091971;28;20074;-77
2022/11/09 02:04:17;;;;;;;1.65;0.43;;;;;;;;;;5111219;28;20169;-78
2022/11/09 02:06:43;;;;;;;1.55;1.08;;;;;;;;;;5113960;28;20039;-77
2022/11/09 02:09:18;;;;;;;1.05;0.88;;;;;;;;;;5114091;28;20068;-77
2022/11/09 02:11:43;;;;;;;2.28;1.05;;;;;;;;;;5113603;28;20035;-77
2022/11/09 02:14:09;;;;;;;0.28;0.28;;;;;;;;;;5113923;28;20646;-77
2022/11/09 02:16:34;;;;;;;9.30;1.38;;;;;;;;;;5095490;28;20023;-76
2022/11/09 02:19:00;;;;;;;1.42;0.40;;;;;;;;;;5113499;28;20043;-76
2022/11/09 02:21:26;;;;;;;1.00;1.00;;;;;;;;;;5113765;28;20436;-76
2022/11/09 02:23:52;;;;;;;0.93;0.52;;;;;;;;;;5113575;28;20466;-76
2022/11/09 02:26:20;;;;;;;0.57;0.55;;;;;;;;;;5113134;28;20122;-76
2022/11/09 02:28:46;;;;;;;1.05;0.70;;;;;;;;;;5113622;28;20036;-76
2022/11/09 02:31:13;;;;;;;0.98;0.98;;;;;;;;;;5113614;28;20119;-76
2022/11/09 02:33:41;;;;;;;0.38;0.38;;;;;;;;;;5113108;28;20066;-76
2022/11/09 02:36:06;;;;;;;0.98;0.98;;;;;;;;;;5113502;28;20123;-76
2022/11/09 02:38:32;;;;;;;0.88;0.88;;;;;;;;;;5113518;28;20118;-77
2022/11/09 02:40:57;;;;;;;1.52;1.42;;;;;;;;;;5113271;28;20036;-77
2022/11/09 02:43:23;;;;;;;0.85;0.85;;;;;;;;;;5087955;28;20036;-76
2022/11/09 02:45:48;;;;;;;1.50;0.45;;;;;;;;;;5094563;28;20035;-78
2022/11/09 02:48:13;;;;;;;1.13;1.13;;;;;;;;;;5113041;28;20040;-78
2022/11/09 02:50:39;;;;;;;1.05;1.05;;;;;;;;;;5113711;28;20061;-79
2022/11/09 02:53:04;;;;;;;0.93;0.93;;;;;;;;;;5096708;28;20035;-79
2022/11/09 02:55:29;;;;;;;0.63;0.55;;;;;;;;;;5114489;28;20035;-79
2022/11/09 02:57:55;;;;;;;1.23;1.15;;;;;;;;;;5114872;28;20031;-81
2022/11/09 03:00:20;;;;;;;0.45;0.30;;;;;;;;;;5096700;28;20035;-81
2022/11/09 03:02:45;;;;;;;1.05;1.05;;;;;;;;;;5114552;28;20173;-81
2022/11/09 03:05:11;;;;;;;0.35;0.35;;;;;;;;;;5114419;28;20062;-81
2022/11/09 03:07:36;;;;;;;0.82;0.82;;;;;;;;;;5114574;28;20043;-80
2022/11/09 03:10:02;;;;;;;1.13;1.13;;;;;;;;;;5114372;28;20074;-79
2022/11/09 03:12:27;;;;;;;1.15;1.05;;;;;;;;;;5114724;28;20504;-80
2022/11/09 03:14:53;;;;;;;1.45;1.35;;;;;;;;;;5114178;28;20038;-80
2022/11/09 03:17:18;;;;;;;0.88;0.88;;;;;;;;;;5114320;28;20035;-81
2022/11/09 03:19:44;;;;;;;0.60;0.60;;;;;;;;;;5114383;28;20065;-79
2022/11/09 03:22:09;;;;;;;1.02;1.02;;;;;;;;;;5114400;28;20801;-80
2022/11/09 03:24:35;;;;;;;0.82;0.82;;;;;;;;;;5113965;28;20082;-80
2022/11/09 03:27:00;;;;;;;1.13;1.13;;;;;;;;;;5114280;28;20511;-80
2022/11/09 03:29:25;;;;;;;1.00;1.00;;;;;;;;;;5113713;28;20036;-79
2022/11/09 03:31:51;;;;;;;0.80;0.80;;;;;;;;;;5114076;28;20059;-80
2022/11/09 03:34:16;;;;;;;1.27;1.08;;;;;;;;;;5114065;28;20036;-80
2022/11/09 03:36:41;;;;;;;1.02;1.02;;;;;;;;;;5095906;28;20122;-80
2022/11/09 03:39:07;;;;;;;1.05;1.05;;;;;;;;;;5095779;28;20063;-80
2022/11/09 03:41:32;;;;;;;1.15;1.15;;;;;;;;;;5111097;28;20046;-80
2022/11/09 03:43:57;;;;;;;0.98;0.98;;;;;;;;;;5108926;28;20038;-80
2022/11/09 03:46:23;;;;;;;0.93;0.93;;;;;;;;;;5095922;28;20027;-80
2022/11/09 03:48:48;;;;;;;1.10;1.10;;;;;;;;;;5113413;28;20046;-80
2022/11/09 03:51:13;;;;;;;1.25;1.25;;;;;;;;;;5094631;28;20042;-80
2022/11/09 03:53:39;;;;;;;1.42;1.33;;;;;;;;;;5112276;28;20075;-80
2022/11/09 03:56:04;;;;;;;0.40;0.40;;;;;;;;;;5112152;28;20023;-80
2022/11/09 03:58:30;;;;;;;1.13;1.13;;;;;;;;;;5093783;28;20032;-79
2022/11/09 04:00:55;;;;;;;1.00;1.00;;;;;;;;;;5112089;28;20032;-80
2022/11/09 04:03:20;;;;;;;1.08;1.08;;;;;;;;;;5111399;28;20035;-80
2022/11/09 04:05:46;;;;;;;0.45;0.45;;;;;;;;;;5111648;28;20039;-80
2022/11/09 04:08:11;;;;;;;1.25;1.25;;;;;;;;;;5112048;28;20034;-80
2022/11/09 04:10:36;;;;;;;0.47;0.38;;;;;;;;;;5111617;28;20393;-81
2022/11/09 04:13:02;;;;;;;1.25;1.25;;;;;;;;;;5111809;28;20039;-81
2022/11/09 04:15:27;;;;;;;1.27;1.17;;;;;;;;;;5111842;28;20051;-81
2022/11/09 04:17:59;;;;;;;1.38;1.27;;;;;;;;;;5111542;28;20046;-81
2022/11/09 04:20:25;;;;;;;1.33;1.00;;;;;;;;;;5111811;28;20043;-80
2022/11/09 04:22:58;;;;;;;1.17;1.17;;;;;;;;;;5093565;28;20548;-80
2022/11/09 04:25:24;;;;;;;0.55;0.47;;;;;;;;;;5110872;28;20393;-80
2022/11/09 04:27:53;;;;;;;0.98;0.98;;;;;;;;;;5110849;28;20118;-79
2022/11/09 04:30:18;;;;;;;1.15;1.13;;;;;;;;;;5111558;28;20525;-78
2022/11/09 04:32:44;;;;;;;0.55;0.55;;;;;;;;;;5111005;28;20031;-78
2022/11/09 04:35:09;;;;;;;1.33;1.30;;;;;;;;;;5111149;28;20122;-78
2022/11/09 04:37:34;;;;;;;0.98;0.98;;;;;;;;;;5111110;28;20032;-78
2022/11/09 04:40:00;;;;;;;0.88;0.88;;;;;;;;;;5092485;28;20097;-78
2022/11/09 04:42:25;;;;;;;0.55;0.55;;;;;;;;;;5104256;28;20117;-78
2022/11/09 04:44:50;;;;;;;0.57;0.57;;;;;;;;;;5110597;28;20035;-78
2022/11/09 04:47:16;;;;;;;1.23;1.23;;;;;;;;;;5110435;28;20031;-78
2022/11/09 04:49:41;;;;;;;0.32;0.32;;;;;;;;;;5111056;28;20122;-78
2022/11/09 04:52:06;;;;;;;0.63;0.63;;;;;;;;;;5094058;28;20034;-78
2022/11/09 04:54:32;;;;;;;1.17;1.10;;;;;;;;;;5112317;28;20081;-78
2022/11/09 04:56:58;;;;;;;1.42;1.33;;;;;;;;;;5112574;28;20031;-78
2022/11/09 04:59:23;;;;;;;0.40;0.40;;;;;;;;;;5112481;28;20375;-79
2022/11/09 05:01:48;;;;;;;0.95;0.95;;;;;;;;;;5111982;28;20061;-81
2022/11/09 05:04:14;;;;;;;1.20;1.20;;;;;;;;;;5112227;28;20619;-81
2022/11/09 05:06:39;;;;;;;1.05;1.05;;;;;;;;;;5112550;28;20040;-81
2022/11/09 05:09:05;;;;;;;0.68;0.28;;;;;;;;;;5094022;28;20378;-81
2022/11/09 05:11:31;;;;;;;1.23;1.23;;;;;;;;;;5093988;28;20489;-79
2022/11/09 05:13:57;;;;;;;0.57;0.57;;;;;;;;;;5112415;28;20035;-79
2022/11/09 05:16:22;;;;;;;1.10;1.10;;;;;;;;;;5093942;28;20031;-76
2022/11/09 05:18:48;;;;;;;0.47;0.47;;;;;;;;;;5112456;28;20043;-76
2022/11/09 05:21:13;;;;;;;1.15;1.15;;;;;;;;;;5112291;28;20038;-79
2022/11/09 05:23:57;;;;;;;1.10;1.10;;;;;;;;;;5111783;28;20088;-80
2022/11/09 05:26:23;;;;;;;1.70;1.65;;;;;;;;;;5112205;28;20080;-81
2022/11/09 05:28:48;;;;;;;3.35;1.13;;;;;;;;;;5112676;28;20435;-82
2022/11/09 05:31:13;;;;;;;0.90;0.90;;;;;;;;;;5112088;28;20043;-81
2022/11/09 05:33:39;;;;;;;0.60;0.60;;;;;;;;;;5112548;28;20088;-82
2022/11/09 05:36:04;;;;;;;1.60;1.50;;;;;;;;;;5077425;28;20032;-82
2022/11/09 05:38:31;;;;;;;0.50;0.50;;;;;;;;;;5096367;28;20042;-82
2022/11/09 05:40:56;;;;;;;4.13;1.23;;;;;;;;;;5116553;28;20039;-81
2022/11/09 05:43:21;;;;;;;0.93;0.93;;;;;;;;;;5116469;28;20489;-82
2022/11/09 05:45:47;;;;;;;1.40;0.90;;;;;;;;;;5115750;28;20043;-81
2022/11/09 05:48:13;;;;;;;0.47;0.47;;;;;;;;;;5115952;28;20032;-78
2022/11/09 05:50:40;;;;;;;0.57;0.50;;;;;;;;;;5115594;28;20035;-78
2022/11/09 05:53:05;;;;;;;0.63;0.63;;;;;;;;;;5095715;28;20043;-78
2022/11/09 05:55:31;;;;;;;1.20;1.10;;;;;;;;;;5114173;28;20027;-78
2022/11/09 05:57:56;;;;;;;0.80;0.80;;;;;;;;;;5114448;28;20035;-77
2022/11/09 06:00:22;;;;;;;1.10;1.10;;;;;;;;;;5095819;28;20032;-77
2022/11/09 06:02:47;;;;;;;0.70;0.70;;;;;;;;;;5114337;28;20040;-77
2022/11/09 06:05:13;;;;;;;0.60;0.60;;;;;;;;;;5113643;28;20062;-77
2022/11/09 06:07:38;;;;;;;1.50;1.50;;;;;;;;;;5113553;28;20592;-74
2022/11/09 06:10:04;;;;;;;0.88;0.60;;;;;;;;;;5114091;28;20035;-76
2022/11/09 06:12:29;;;;;;;1.67;0.57;;;;;;;;;;5113843;28;20447;-76
2022/11/09 06:14:55;;;;;;;3.58;1.63;;;;;;;;;;5113612;28;20032;-78
2022/11/09 06:17:20;;;;;;;1.25;1.15;;;;;;;;;;5111167;28;20062;-77
2022/11/09 06:19:45;;;;;;;0.55;0.55;;;;;;;;;;5095569;28;20031;-77
2022/11/09 06:22:11;;;;;;;1.42;1.35;;;;;;;;;;5109708;28;20683;-79
2022/11/09 06:24:36;;;;;;;1.23;1.23;;;;;;;;;;5112428;28;20061;-74
2022/11/09 06:27:02;;;;;;;1.58;1.48;;;;;;;;;;5106728;28;20119;-74
2022/11/09 06:29:27;;;;;;;2.40;1.70;;;;;;;;;;5098725;28;20031;-78
2022/11/09 06:31:53;;;;;;;0.60;0.60;;;;;;;;;;5107554;28;20042;-79
2022/11/09 06:34:18;;;;;;;1.70;1.15;;;;;;;;;;5111498;28;20039;-75
2022/11/09 06:36:44;;;;;;;3.50;1.45;;;;;;;;;;5106150;28;20114;-79
2022/11/09 06:39:09;;;;;;;1.73;1.63;;;;;;;;;;5112930;28;20127;-87
2022/11/09 06:41:34;;;;;;;4.20;0.88;;;;;;;;;;5113077;28;20035;-77
2022/11/09 06:44:00;;;;;;;3.75;1.27;;;;;;;;;;5094531;28;20509;-78
2022/11/09 06:46:25;;;;;;;0.77;0.73;;;;;;;;;;5109957;28;20063;-80
2022/11/09 06:48:50;;;;;;;1.60;1.50;;;;;;;;;;5106840;28;20069;-81
2022/11/09 06:51:16;;;;;;;5.88;1.65;;;;;;;;;;5113407;28;20114;-79
2022/11/09 06:53:42;;;;;;;1.65;1.55;;;;;;;;;;5096589;28;20027;-78
2022/11/09 06:56:08;;;;;;;1.27;1.25;;;;;;;;;;5115185;28;20065;-86
2022/11/09 06:58:33;;;;;;;4.78;1.65;;;;;;;;;;5097112;28;20038;-83
2022/11/09 07:00:58;;;;;;;4.35;1.70;;;;;;;;;;5114507;28;20032;-77
2022/11/09 07:03:24;;;;;;;2.65;1.52;;;;;;;;;;5114439;28;20045;-78
2022/11/09 07:05:51;;;;;;;6.00;1.80;;;;;;;;;;5114593;28;20048;-77
2022/11/09 07:08:16;;;;;;;2.03;1.58;;;;;;;;;;5114387;28;20031;-77
2022/11/09 07:10:42;;;;;;;4.93;1.80;;;;;;;;;;5114654;28;20512;-85
2022/11/09 07:13:08;;;;;;;6.10;1.90;;;;;;;;;;5114675;28;20040;-79
2022/11/09 07:15:34;;;;;;;4.63;1.98;;;;;;;;;;5114204;28;20057;-77
2022/11/09 07:18:00;;;;;;;7.03;1.90;;;;;;;;;;5113859;28;20110;-77
2022/11/09 07:20:25;;;;;;;5.20;1.85;;;;;;;;;;5114424;28;20112;-79
2022/11/09 07:22:51;;;;;;;2.55;1.70;;;;;;;;;;5095748;28;20105;-79
2022/11/09 07:25:17;;;;;;;6.63;1.42;;;;;;;;;;5114325;28;20035;-79
2022/11/09 07:27:42;;;;;;;4.90;0.70;;;;;;;;;;5114428;28;20032;-79
2022/11/09 07:30:08;;;;;;;3.38;0.80;;;;;;;;;;5113962;28;20031;-79
2022/11/09 07:32:34;;;;;;;1.98;0.80;;;;;;;;;;5096128;28;20439;-79
2022/11/09 07:34:59;;;;;;;1.65;1.55;;;;;;;;;;5114045;28;20118;-79
2022/11/09 07:37:25;;;;;;;1.55;1.45;;;;;;;;;;5095537;28;20126;-80
2022/11/09 07:39:50;;;;;;;3.45;1.13;;;;;;;;;;5095984;28;20432;-79
2022/11/09 07:42:15;;;;;;;2.50;1.40;;;;;;;;;;5107033;28;20086;-79
2022/11/09 07:44:41;;;;;;;3.88;1.55;;;;;;;;;;5113421;28;20043;-80
2022/11/09 07:47:06;;;;;;;2.17;1.98;;;;;;;;;;5105523;28;20055;-79
2022/11/09 07:49:31;;;;;;;2.90;1.42;;;;;;;;;;5113919;28;20031;-79
2022/11/09 07:51:57;;;;;;;1.20;1.10;;;;;;;;;;5112224;28;20035;-80
2022/11/09 07:54:22;;;;;;;2.05;0.80;;;;;;;;;;5094228;28;20126;-79
2022/11/09 07:56:47;;;;;;;2.58;1.35;;;;;;;;;;5094063;28;20085;-79
2022/11/09 07:59:13;;;;;;;1.95;1.35;;;;;;;;;;5111731;28;20031;-79
2022/11/09 08:01:38;;;;;;;1.33;1.23;;;;;;;;;;5111869;28;20035;-79
2022/11/09 08:04:05;;;;;;;1.27;1.20;;;;;;;;;;5111733;28;20062;-79
2022/11/09 08:06:30;;;;;;;1.52;1.48;;;;;;;;;;5111139;28;20066;-80
2022/11/09 08:08:56;;;;;;;1.30;0.90;;;;;;;;;;5111969;28;20035;-79
2022/11/09 08:11:22;;;;;;;2.25;1.33;;;;;;;;;;5111789;28;20540;-79
2022/11/09 08:13:47;;;;;;;2.83;1.52;;;;;;;;;;5111272;28;20027;-79
2022/11/09 08:16:13;;;;;;;1.40;1.23;;;;;;;;;;5111892;28;20031;-79
2022/11/09 08:18:38;;;;;;;2.00;1.42;;;;;;;;;;5111587;28;20517;-79
2022/11/09 08:21:04;;;;;;;1.60;1.50;;;;;;;;;;5092774;28;20032;-79
2022/11/09 08:23:29;;;;;;;1.02;0.85;;;;;;;;;;5111389;28;20032;-79
2022/11/09 08:25:54;;;;;;;2.38;0.88;;;;;;;;;;5093116;28;20067;-79
2022/11/09 08:28:21;;;;;;;1.10;0.95;;;;;;;;;;5111083;28;20043;-79
2022/11/09 08:30:53;;;;;;;1.48;1.15;;;;;;;;;;5111542;28;20035;-80
2022/11/09 08:33:18;;;;;;;1.35;1.15;;;;;;;;;;5111441;28;20547;-79
2022/11/09 08:35:44;;;;;;;1.50;1.40;;;;;;;;;;5110938;28;20035;-79
2022/11/09 08:38:09;;;;;;;1.35;1.25;;;;;;;;;;5111265;28;20035;-79
2022/11/09 08:40:35;;;;;;;1.55;1.45;;;;;;;;;;5111248;28;20073;-79
2022/11/09 08:43:01;;;;;;;1.42;1.33;;;;;;;;;;5110794;28;20053;-79
2022/11/09 08:45:27;;;;;;;1.55;0.63;;;;;;;;;;5110592;28;20535;-79
2022/11/09 08:48:01;;;;;;;1.15;1.15;;;;;;;;;;5092664;28;20035;-80
2022/11/09 08:50:27;;;;;;;0.93;0.88;;;;;;;;;;5110769;28;20032;-79
2022/11/09 08:52:53;;;;;;;1.63;1.52;;;;;;;;;;5112916;28;20559;-79
2022/11/09 08:55:18;;;;;;;1.60;1.30;;;;;;;;;;5094316;28;20118;-77
2022/11/09 08:57:44;;;;;;;1.33;0.90;;;;;;;;;;5112214;28;20401;-77
2022/11/09 09:00:09;;;;;;;1.25;1.17;;;;;;;;;;5094289;28;20038;-77
2022/11/09 09:02:34;;;;;;;1.58;1.48;;;;;;;;;;5094269;28;20075;-77
2022/11/09 09:05:00;;;;;;;2.65;1.70;;;;;;;;;;5093391;28;20134;-77
2022/11/09 09:07:25;;;;;;;1.92;1.42;;;;;;;;;;5108595;28;20046;-77
2022/11/09 09:09:51;;;;;;;1.60;1.50;;;;;;;;;;5079477;28;20035;-77
2022/11/09 09:12:16;;;;;;;1.42;1.33;;;;;;;;;;5087329;28;20115;-77
2022/11/09 09:14:42;;;;;;;1.55;1.48;;;;;;;;;;5088383;28;20074;-77
2022/11/09 09:17:07;;;;;;;3.30;1.83;;;;;;;;;;5089739;28;20020;-78
2022/11/09 09:19:33;;;;;;;1.85;1.45;;;;;;;;;;5089690;28;20028;-78
2022/11/09 09:21:59;;;;;;;1.40;1.30;;;;;;;;;;5071298;28;20113;-77
2022/11/09 09:24:25;;;;;;;1.30;1.30;;;;;;;;;;5089679;28;20031;-78
2022/11/09 09:26:50;;;;;;;1.38;1.27;;;;;;;;;;5089314;28;20600;-78
2022/11/09 09:29:43;;;;;;;;;;;;;;;;;;;;;
2022/11/09 09:32:28;;;;;;;1.65;1.55;;;;;;;;;;5090675;28;20106;-78
2022/11/09 09:38:22;;;;;;;1.35;1.25;;;;;;;;;;5007844;28;20028;-77
2022/11/09 09:40:58;;;;;;;1.75;1.55;;;;;;;;;;5089852;28;20116;-77
2022/11/09 09:43:35;;;;;;;2.28;1.45;;;;;;;;;;5107155;28;20031;-78
2022/11/09 09:46:03;;;;;;;2.65;0.98;;;;;;;;;;5089319;28;20122;-78
2022/11/09 09:48:35;;;;;;;1.65;0.80;;;;;;;;;;5089349;28;20496;-78
2022/11/09 09:51:33;;;;;;;1.65;1.42;;;;;;;;;;5088481;28;20028;-78
2022/11/09 09:54:02;;;;;;;1.63;1.52;;;;;;;;;;5042534;28;20106;-78
2022/11/09 09:56:27;;;;;;;;;;;;;;;;;;5088033;28;20081;-78
2022/11/09 09:59:18;;;;;;;1.00;1.00;;;;;;;;;;5087950;28;20002;-79
2022/11/09 10:04:37;;;;;;;;;;;;;;;;;;5091529;28;20081;-77
2022/11/09 10:07:21;;;;;;;0.88;0.70;;;;;;;;;;5087038;28;19920;-78
2022/11/09 10:10:00;;;;;;;3.38;1.63;;;;;;;;;;5083565;28;20028;-78
2022/11/09 10:12:25;;;;;;;1.77;1.55;;;;;;;;;;5083842;28;20089;-78
2022/11/09 10:15:19;;;;;;;1.38;1.38;;;;;;;;;;5086762;28;20047;-78
2022/11/09 10:17:45;;;;;;;1.05;1.05;;;;;;;;;;5069172;28;20043;-78
2022/11/09 10:20:22;;;;;;;1.13;1.13;;;;;;;;;;5084708;28;20028;-78
2022/11/09 10:22:51;;;;;;;1.20;1.17;;;;;;;;;;5084715;28;20036;-78
2022/11/09 10:25:24;;;;;;;1.20;1.20;;;;;;;;;;5088442;28;20053;-78
2022/11/09 10:27:57;;;;;;;1.23;1.23;;;;;;;;;;5088113;28;20494;-78
2022/11/09 10:30:23;;;;;;;0.85;0.63;;;;;;;;;;5087812;28;20386;-77
2022/11/09 10:32:56;;;;;;;0.77;0.77;;;;;;;;;;5091043;28;20031;-77
2022/11/09 10:35:21;;;;;;;1.08;0.60;;;;;;;;;;5089188;28;20055;-78
2022/11/09 10:37:48;;;;;;;0.52;0.50;;;;;;;;;;5091014;28;20750;-78
2022/11/09 10:40:22;;;;;;;1.40;1.38;;;;;;;;;;5090695;28;20126;-78
2022/11/09 10:42:50;;;;;;;2.10;0.82;;;;;;;;;;5090503;28;20032;-78
2022/11/09 10:45:27;;;;;;;1.58;1.48;;;;;;;;;;5090002;28;20034;-78
2022/11/09 10:47:53;;;;;;;1.42;1.33;;;;;;;;;;5090533;28;20032;-78
2022/11/09 10:50:36;;;;;;;1.55;1.45;;;;;;;;;;5089935;28;20028;-78
2022/11/09 10:53:09;;;;;;;2.17;1.42;;;;;;;;;;5090964;28;20028;-78
2022/11/09 10:55:59;;;;;;;1.67;1.58;;;;;;;;;;5095135;28;20117;-80
2022/11/09 10:58:29;;;;;;;1.52;1.45;;;;;;;;;;5072589;28;20044;-78
2022/11/09 11:01:13;;;;;;;2.45;1.38;;;;;;;;;;5111322;28;20034;-80
2022/11/09 11:03:39;;;;;;;1.42;1.30;;;;;;;;;;5112418;28;20592;-78
2022/11/09 11:06:08;;;;;;;1.77;1.65;;;;;;;;;;5111961;28;20035;-79
2022/11/09 11:08:37;;;;;;;1.23;0.90;;;;;;;;;;5111983;28;20523;-78
2022/11/09 11:11:26;;;;;;;1.33;1.30;;;;;;;;;;5112096;28;20051;-79
2022/11/09 11:14:05;;;;;;;1.50;1.40;;;;;;;;;;5101504;28;20043;-79
2022/11/09 11:16:32;;;;;;;1.70;1.60;;;;;;;;;;5112384;28;20049;-79
2022/11/09 11:18:58;;;;;;;0.80;0.80;;;;;;;;;;5109802;28;20035;-79
2022/11/09 11:21:24;;;;;;;1.27;1.17;;;;;;;;;;5102396;28;20031;-78
2022/11/09 11:24:08;;;;;;;0.50;0.50;;;;;;;;;;5099844;28;20138;-79
2022/11/09 11:26:37;;;;;;;1.60;1.50;;;;;;;;;;5088348;28;20035;-79
2022/11/09 11:29:28;;;;;;;1.48;1.42;;;;;;;;;;5091518;28;20032;-79
2022/11/09 11:31:53;;;;;;;1.48;1.48;;;;;;;;;;5059853;28;20043;-79
2022/11/09 11:34:19;;;;;;;1.55;0.95;;;;;;;;;;5090871;28;20028;-79
2022/11/09 11:36:48;;;;;;;0.80;0.68;;;;;;;;;;5089244;28;20024;-79
2022/11/09 11:39:32;;;;;;;0.50;0.50;;;;;;;;;;5073406;28;20400;-77
2022/11/09 11:42:19;;;;;;;1.67;1.58;;;;;;;;;;5093380;28;20027;-79
2022/11/09 11:45:05;;;;;;;1.60;1.50;;;;;;;;;;5093344;28;20034;-79
2022/11/09 11:47:50;;;;;;;1.38;1.20;;;;;;;;;;5079010;28;20055;-79
2022/11/09 11:50:23;;;;;;;0.82;0.82;;;;;;;;;;5074872;28;20059;-79
2022/11/09 11:52:49;;;;;;;1.67;0.82;;;;;;;;;;5092164;28;20397;-79
2022/11/09 11:55:33;;;;;;;1.30;1.30;;;;;;;;;;5073147;28;20042;-79
2022/11/09 11:58:01;;;;;;;0.80;0.80;;;;;;;;;;5091554;28;20486;-79
2022/11/09 12:00:27;;;;;;;1.90;0.82;;;;;;;;;;5091704;28;20394;-79
2022/11/09 12:03:01;;;;;;;0.65;0.65;;;;;;;;;;5073069;28;20036;-79
2022/11/09 12:05:35;;;;;;;1.58;1.35;;;;;;;;;;5091187;28;20079;-79
2022/11/09 12:08:00;;;;;;;1.58;1.48;;;;;;;;;;5091492;28;20940;-79
2022/11/09 12:10:32;;;;;;;0.80;0.80;;;;;;;;;;5084150;28;20040;-79
2022/11/09 12:13:06;;;;;;;0.93;0.93;;;;;;;;;;5075248;28;20070;-78
2022/11/09 12:15:32;;;;;;;3.15;1.70;;;;;;;;;;5073018;28;20055;-78
2022/11/09 12:18:00;;;;;;;1.67;1.58;;;;;;;;;;5082065;28;20032;-78
2022/11/09 12:20:37;;;;;;;1.63;1.52;;;;;;;;;;5071742;28;20548;-78
2022/11/09 12:23:19;;;;;;;1.75;1.65;;;;;;;;;;5070983;28;20032;-78
2022/11/09 12:25:45;;;;;;;1.20;1.10;;;;;;;;;;5070192;28;20040;-79
2022/11/09 12:28:16;;;;;;;1.33;1.23;;;;;;;;;;5070762;28;20178;-78
2022/11/09 12:30:53;;;;;;;1.60;1.45;;;;;;;;;;5072701;28;20040;-76
2022/11/09 12:33:22;;;;;;;1.65;1.55;;;;;;;;;;5080837;28;20085;-76
2022/11/09 12:35:50;;;;;;;1.50;1.40;;;;;;;;;;5070333;28;20077;-76
2022/11/09 12:38:18;;;;;;;1.38;1.38;;;;;;;;;;5052534;28;20127;-76
2022/11/09 12:41:01;;;;;;;1.15;1.15;;;;;;;;;;5070319;28;20104;-76
2022/11/09 12:43:26;;;;;;;0.82;0.82;;;;;;;;;;5088899;28;20036;-76
2022/11/09 12:45:51;;;;;;;1.00;0.80;;;;;;;;;;5090055;28;20531;-76
2022/11/09 12:48:24;;;;;;;1.38;1.35;;;;;;;;;;5091871;28;20482;-89
2022/11/09 12:50:50;;;;;;;1.67;1.58;;;;;;;;;;5093047;28;20088;-89
2022/11/09 12:53:16;;;;;;;1.98;1.65;;;;;;;;;;5093373;28;20121;-89
2022/11/09 12:55:54;;;;;;;1.65;1.55;;;;;;;;;;5074874;28;20051;-90
2022/11/09 12:58:24;;;;;;;1.75;1.65;;;;;;;;;;5093194;28;20144;-91
2022/11/09 13:00:51;;;;;;;1.52;0.65;;;;;;;;;;5075295;28;20395;-90
2022/11/09 13:03:40;;;;;;;1.55;1.45;;;;;;;;;;5092757;28;20154;-90
2022/11/09 13:06:08;;;;;;;1.58;1.48;;;;;;;;;;5064203;28;20048;-91
2022/11/09 13:08:36;;;;;;;1.42;1.33;;;;;;;;;;5092829;28;20543;-90
2022/11/09 13:11:28;;;;;;;1.13;0.85;;;;;;;;;;5074715;28;20068;-91
2022/11/09 13:14:13;;;;;;;0.55;0.55;;;;;;;;;;5044676;28;20139;-90
2022/11/09 13:16:38;;;;;;;1.60;1.50;;;;;;;;;;5075024;28;20035;-91
2022/11/09 13:19:07;;;;;;;1.73;1.40;;;;;;;;;;5075129;28;20032;-90
2022/11/09 13:21:34;;;;;;;1.67;1.58;;;;;;;;;;5075055;28;20039;-90
2022/11/09 13:24:19;;;;;;;1.13;1.05;;;;;;;;;;5093001;28;20036;-89
2022/11/09 13:26:44;;;;;;;1.83;1.73;;;;;;;;;;5074417;28;20042;-90
2022/11/09 13:29:23;;;;;;;2.88;1.80;;;;;;;;;;5074566;28;20055;-90
2022/11/09 13:32:03;;;;;;;1.45;1.42;;;;;;;;;;5074542;28;20043;-89
2022/11/09 13:34:49;;;;;;;0.93;0.80;;;;;;;;;;5093201;28;20425;-91
2022/11/09 13:37:33;;;;;;;1.70;1.60;;;;;;;;;;5092965;28;20032;-93
2022/11/09 13:39:58;;;;;;;1.67;1.58;;;;;;;;;;5074625;28;20494;-91
2022/11/09 13:42:31;;;;;;;1.52;1.33;;;;;;;;;;5093500;28;20036;-84
2022/11/09 13:45:15;;;;;;;2.03;1.88;;;;;;;;;;5103688;28;20057;-87
2022/11/09 13:47:48;;;;;;;1.48;0.73;;;;;;;;;;5112264;28;20034;-85
2022/11/09 13:50:18;;;;;;;0.82;0.82;;;;;;;;;;5112907;28;20036;-85
2022/11/09 13:52:47;;;;;;;1.60;1.50;;;;;;;;;;5112834;28;20481;-87
2022/11/09 13:55:20;;;;;;;1.45;0.80;;;;;;;;;;5112658;28;20039;-87
2022/11/09 13:57:45;;;;;;;1.52;1.42;;;;;;;;;;5112910;28;20031;-87
2022/11/09 14:00:17;;;;;;;1.88;1.77;;;;;;;;;;5116287;28;20089;-88
2022/11/09 14:02:51;;;;;;;1.75;1.55;;;;;;;;;;5116532;28;20084;-87
2022/11/09 14:05:30;;;;;;;1.77;1.67;;;;;;;;;;5116411;28;20056;-87
2022/11/09 14:07:58;;;;;;;1.63;1.52;;;;;;;;;;5098406;28;20075;-88
2022/11/09 14:10:32;;;;;;;1.40;1.40;;;;;;;;;;5116347;28;20167;-86
2022/11/09 14:13:04;;;;;;;1.83;1.73;;;;;;;;;;5116434;28;20046;-86
2022/11/09 14:16:05;;;;;;;1.58;1.48;;;;;;;;;;5098010;28;20032;-86
2022/11/09 14:18:45;;;;;;;0.73;0.73;;;;;;;;;;5033083;28;20033;-86
2022/11/09 14:21:14;;;;;;;0.85;0.80;;;;;;;;;;5088342;28;20039;-86
2022/11/09 14:23:39;;;;;;;1.80;1.70;;;;;;;;;;5115572;28;20031;-85
2022/11/09 14:26:06;;;;;;;0.60;0.60;;;;;;;;;;5115696;28;20038;-86
2022/11/09 14:28:33;;;;;;;1.55;1.45;;;;;;;;;;5115874;28;20048;-85
2022/11/09 14:30:58;;;;;;;1.58;1.48;;;;;;;;;;5115435;28;20074;-86
2022/11/09 14:33:33;;;;;;;1.08;0.98;;;;;;;;;;5115194;28;20477;-84
2022/11/09 14:36:00;;;;;;;2.58;1.85;;;;;;;;;;5115085;28;20432;-87
2022/11/09 14:38:28;;;;;;;1.83;1.70;;;;;;;;;;5094926;28;20498;-86
2022/11/09 14:40:53;;;;;;;1.85;1.75;;;;;;;;;;5094256;28;20047;-84
2022/11/09 14:43:37;;;;;;;1.52;1.42;;;;;;;;;;5097214;28;20027;-85
2022/11/09 14:46:03;;;;;;;1.77;1.67;;;;;;;;;;5090701;28;20118;-86
2022/11/09 14:48:30;;;;;;;1.58;1.48;;;;;;;;;;5097301;28;20039;-86
2022/11/09 14:50:57;;;;;;;2.08;1.73;;;;;;;;;;5102689;28;20039;-86
2022/11/09 14:53:25;;;;;;;1.65;1.52;;;;;;;;;;5099994;28;20042;-85
2022/11/09 14:55:53;;;;;;;1.00;0.75;;;;;;;;;;5117059;28;20437;-85
2022/11/09 14:58:20;;;;;;;1.55;1.45;;;;;;;;;;5116121;28;20032;-85
2022/11/09 15:01:04;;;;;;;1.27;1.27;;;;;;;;;;5115203;28;20031;-87